sensor_id;sensor_type;location;lat;lon;timestamp;P1;durP1;ratioP1;P2;durP2;ratioP2
7843;SDS011;3967;48.702;9.326;2023-02-01T00:02:25;4.30;;;2.63;;
7843;SDS011;3967;48.702;9.326;2023-02-01T00:04:52;3.20;;;2.67;;
7843;SDS011;3967;48.702;9.326;2023-02-01T00:07:18;3.50;;;2.83;;
7843;SDS011;3967;48.702;9.326;2023-02-01T00:09:45;3.77;;;2.40;;
7843;SDS011;3967;48.702;9.326;2023-02-01T00:12:12;2.67;;;2.40;;
7843;SDS011;3967;48.702;9.326;2023-02-01T00:14:38;2.87;;;2.40;;
7843;SDS011;3967;48.702;9.326;2023-02-01T00:17:06;2.93;;;2.50;;
7843;SDS011;3967;48.702;9.326;2023-02-01T00:19:33;4.93;;;2.73;;
7843;SDS011;3967;48.702;9.326;2023-02-01T00:22:00;3.20;;;2.30;;
7843;SDS011;3967;48.702;9.326;2023-02-01T00:24:27;3.97;;;2.60;;
7843;SDS011;3967;48.702;9.326;2023-02-01T00:26:54;2.80;;;2.27;;
7843;SDS011;3967;48.702;9.326;2023-02-01T00:29:21;2.50;;;2.30;;
7843;SDS011;3967;48.702;9.326;2023-02-01T00:31:49;4.33;;;2.30;;
7843;SDS011;3967;48.702;9.326;2023-02-01T00:34:19;2.33;;;2.07;;
7843;SDS011;3967;48.702;9.326;2023-02-01T00:36:47;3.13;;;2.07;;
7843;SDS011;3967;48.702;9.326;2023-02-01T00:39:14;2.37;;;1.93;;
7843;SDS011;3967;48.702;9.326;2023-02-01T00:41:41;2.17;;;2.00;;
7843;SDS011;3967;48.702;9.326;2023-02-01T00:44:08;2.50;;;2.07;;
7843;SDS011;3967;48.702;9.326;2023-02-01T00:46:35;2.47;;;1.90;;
7843;SDS011;3967;48.702;9.326;2023-02-01T00:49:01;3.10;;;2.03;;
7843;SDS011;3967;48.702;9.326;2023-02-01T00:51:28;2.17;;;1.97;;
7843;SDS011;3967;48.702;9.326;2023-02-01T00:53:56;1.73;;;1.63;;
7843;SDS011;3967;48.702;9.326;2023-02-01T00:56:23;2.10;;;1.87;;
7843;SDS011;3967;48.702;9.326;2023-02-01T00:58:50;3.00;;;1.70;;
7843;SDS011;3967;48.702;9.326;2023-02-01T01:01:18;1.80;;;1.60;;
7843;SDS011;3967;48.702;9.326;2023-02-01T01:03:50;1.50;;;1.40;;
7843;SDS011;3967;48.702;9.326;2023-02-01T01:06:20;2.40;;;1.87;;
7843;SDS011;3967;48.702;9.326;2023-02-01T01:08:55;2.63;;;2.00;;
7843;SDS011;3967;48.702;9.326;2023-02-01T01:11:24;1.60;;;1.50;;
7843;SDS011;3967;48.702;9.326;2023-02-01T01:13:53;1.60;;;1.40;;
7843;SDS011;3967;48.702;9.326;2023-02-01T01:16:21;1.43;;;1.33;;
7843;SDS011;3967;48.702;9.326;2023-02-01T01:18:50;1.63;;;1.40;;
7843;SDS011;3967;48.702;9.326;2023-02-01T01:21:17;1.70;;;1.60;;
7843;SDS011;3967;48.702;9.326;2023-02-01T01:23:45;3.03;;;1.70;;
7843;SDS011;3967;48.702;9.326;2023-02-01T01:26:16;2.47;;;1.53;;
7843;SDS011;3967;48.702;9.326;2023-02-01T01:28:49;1.93;;;1.70;;
7843;SDS011;3967;48.702;9.326;2023-02-01T01:31:17;1.80;;;1.70;;
7843;SDS011;3967;48.702;9.326;2023-02-01T01:33:47;1.97;;;1.80;;
7843;SDS011;3967;48.702;9.326;2023-02-01T01:36:15;1.83;;;1.50;;
7843;SDS011;3967;48.702;9.326;2023-02-01T01:38:42;1.77;;;1.67;;
7843;SDS011;3967;48.702;9.326;2023-02-01T01:41:11;1.73;;;1.63;;
7843;SDS011;3967;48.702;9.326;2023-02-01T01:43:48;2.03;;;1.67;;
7843;SDS011;3967;48.702;9.326;2023-02-01T01:46:23;2.40;;;2.00;;
7843;SDS011;3967;48.702;9.326;2023-02-01T01:48:56;2.07;;;1.97;;
7843;SDS011;3967;48.702;9.326;2023-02-01T01:51:32;1.63;;;1.53;;
7843;SDS011;3967;48.702;9.326;2023-02-01T01:54:04;2.07;;;1.87;;
7843;SDS011;3967;48.702;9.326;2023-02-01T01:56:38;1.97;;;1.83;;
7843;SDS011;3967;48.702;9.326;2023-02-01T01:59:05;1.60;;;1.50;;
7843;SDS011;3967;48.702;9.326;2023-02-01T02:01:33;1.87;;;1.77;;
7843;SDS011;3967;48.702;9.326;2023-02-01T02:04:00;1.87;;;1.70;;
7843;SDS011;3967;48.702;9.326;2023-02-01T02:07:11;1.90;;;1.73;;
7843;SDS011;3967;48.702;9.326;2023-02-01T02:09:24;1.83;;;1.67;;
7843;SDS011;3967;48.702;9.326;2023-02-01T02:11:51;2.20;;;1.70;;
7843;SDS011;3967;48.702;9.326;2023-02-01T02:14:18;2.03;;;1.80;;
7843;SDS011;3967;48.702;9.326;2023-02-01T02:35:55;1.67;;;1.57;;
7843;SDS011;3967;48.702;9.326;2023-02-01T02:41:27;1.47;;;1.37;;
7843;SDS011;3967;48.702;9.326;2023-02-01T02:44:21;2.47;;;1.60;;
7843;SDS011;3967;48.702;9.326;2023-02-01T02:47:16;1.63;;;1.30;;
7843;SDS011;3967;48.702;9.326;2023-02-01T02:52:51;1.50;;;1.40;;
7843;SDS011;3967;48.702;9.326;2023-02-01T02:55:41;1.97;;;1.57;;
7843;SDS011;3967;48.702;9.326;2023-02-01T02:58:09;1.30;;;1.20;;
7843;SDS011;3967;48.702;9.326;2023-02-01T03:00:57;1.80;;;1.60;;
7843;SDS011;3967;48.702;9.326;2023-02-01T03:03:43;1.73;;;1.63;;
7843;SDS011;3967;48.702;9.326;2023-02-01T03:06:30;2.20;;;2.00;;
7843;SDS011;3967;48.702;9.326;2023-02-01T03:09:00;1.80;;;1.70;;
7843;SDS011;3967;48.702;9.326;2023-02-01T03:11:29;2.40;;;1.80;;
7843;SDS011;3967;48.702;9.326;2023-02-01T03:14:18;2.07;;;1.93;;
7843;SDS011;3967;48.702;9.326;2023-02-01T03:16:50;1.90;;;1.70;;
7843;SDS011;3967;48.702;9.326;2023-02-01T03:19:25;1.93;;;1.83;;
7843;SDS011;3967;48.702;9.326;2023-02-01T03:21:59;2.30;;;2.10;;
7843;SDS011;3967;48.702;9.326;2023-02-01T03:24:36;2.07;;;1.97;;
7843;SDS011;3967;48.702;9.326;2023-02-01T03:27:14;2.77;;;2.10;;
7843;SDS011;3967;48.702;9.326;2023-02-01T03:32:28;2.63;;;2.40;;
7843;SDS011;3967;48.702;9.326;2023-02-01T03:35:15;2.23;;;2.03;;
7843;SDS011;3967;48.702;9.326;2023-02-01T03:37:42;3.20;;;2.10;;
7843;SDS011;3967;48.702;9.326;2023-02-01T03:40:10;2.33;;;2.13;;
7843;SDS011;3967;48.702;9.326;2023-02-01T03:42:43;2.20;;;2.00;;
7843;SDS011;3967;48.702;9.326;2023-02-01T03:45:20;2.33;;;2.07;;
7843;SDS011;3967;48.702;9.326;2023-02-01T03:47:52;2.23;;;2.03;;
7843;SDS011;3967;48.702;9.326;2023-02-01T03:50:23;3.03;;;2.10;;
7843;SDS011;3967;48.702;9.326;2023-02-01T03:52:56;1.80;;;1.70;;
7843;SDS011;3967;48.702;9.326;2023-02-01T03:55:26;2.30;;;2.10;;
7843;SDS011;3967;48.702;9.326;2023-02-01T03:57:58;1.90;;;1.80;;
7843;SDS011;3967;48.702;9.326;2023-02-01T04:01:00;2.20;;;1.87;;
7843;SDS011;3967;48.702;9.326;2023-02-01T04:03:27;2.10;;;1.90;;
7843;SDS011;3967;48.702;9.326;2023-02-01T04:05:54;2.47;;;2.27;;
7843;SDS011;3967;48.702;9.326;2023-02-01T04:08:22;3.50;;;2.30;;
7843;SDS011;3967;48.702;9.326;2023-02-01T04:10:49;3.17;;;2.23;;
7843;SDS011;3967;48.702;9.326;2023-02-01T04:13:16;3.23;;;2.60;;
7843;SDS011;3967;48.702;9.326;2023-02-01T04:15:43;2.23;;;2.03;;
7843;SDS011;3967;48.702;9.326;2023-02-01T04:18:09;2.00;;;1.80;;
7843;SDS011;3967;48.702;9.326;2023-02-01T04:20:36;2.80;;;2.10;;
7843;SDS011;3967;48.702;9.326;2023-02-01T04:23:03;2.00;;;1.90;;
7843;SDS011;3967;48.702;9.326;2023-02-01T04:25:29;2.40;;;2.20;;
7843;SDS011;3967;48.702;9.326;2023-02-01T04:27:56;2.10;;;1.90;;
7843;SDS011;3967;48.702;9.326;2023-02-01T04:30:23;2.10;;;2.00;;
7843;SDS011;3967;48.702;9.326;2023-02-01T04:32:50;3.93;;;2.37;;
7843;SDS011;3967;48.702;9.326;2023-02-01T04:35:17;3.13;;;2.30;;
7843;SDS011;3967;48.702;9.326;2023-02-01T04:37:43;2.17;;;2.07;;
7843;SDS011;3967;48.702;9.326;2023-02-01T04:40:10;2.10;;;2.00;;
7843;SDS011;3967;48.702;9.326;2023-02-01T04:42:40;2.10;;;1.90;;
7843;SDS011;3967;48.702;9.326;2023-02-01T04:45:10;2.27;;;2.07;;
7843;SDS011;3967;48.702;9.326;2023-02-01T04:47:37;2.77;;;2.27;;
7843;SDS011;3967;48.702;9.326;2023-02-01T04:50:03;3.50;;;1.97;;
7843;SDS011;3967;48.702;9.326;2023-02-01T04:52:31;2.20;;;2.00;;
7843;SDS011;3967;48.702;9.326;2023-02-01T04:54:58;2.10;;;1.90;;
7843;SDS011;3967;48.702;9.326;2023-02-01T04:57:26;2.37;;;1.77;;
7843;SDS011;3967;48.702;9.326;2023-02-01T04:59:53;2.17;;;1.97;;
7843;SDS011;3967;48.702;9.326;2023-02-01T05:02:19;2.93;;;2.10;;
7843;SDS011;3967;48.702;9.326;2023-02-01T05:04:46;1.97;;;1.70;;
7843;SDS011;3967;48.702;9.326;2023-02-01T05:07:13;2.20;;;2.00;;
7843;SDS011;3967;48.702;9.326;2023-02-01T05:09:40;2.27;;;1.70;;
7843;SDS011;3967;48.702;9.326;2023-02-01T05:12:07;2.00;;;1.80;;
7843;SDS011;3967;48.702;9.326;2023-02-01T05:14:54;3.30;;;2.10;;
7843;SDS011;3967;48.702;9.326;2023-02-01T05:17:21;2.00;;;1.90;;
7843;SDS011;3967;48.702;9.326;2023-02-01T05:19:47;2.23;;;2.03;;
7843;SDS011;3967;48.702;9.326;2023-02-01T05:22:14;2.53;;;1.67;;
7843;SDS011;3967;48.702;9.326;2023-02-01T05:24:41;2.90;;;1.83;;
7843;SDS011;3967;48.702;9.326;2023-02-01T05:27:08;2.47;;;2.00;;
7843;SDS011;3967;48.702;9.326;2023-02-01T05:29:34;1.73;;;1.60;;
7843;SDS011;3967;48.702;9.326;2023-02-01T05:32:01;3.73;;;2.47;;
7843;SDS011;3967;48.702;9.326;2023-02-01T05:34:46;3.10;;;2.10;;
7843;SDS011;3967;48.702;9.326;2023-02-01T05:37:13;4.03;;;1.90;;
7843;SDS011;3967;48.702;9.326;2023-02-01T05:39:39;1.77;;;1.47;;
7843;SDS011;3967;48.702;9.326;2023-02-01T05:42:06;1.80;;;1.50;;
7843;SDS011;3967;48.702;9.326;2023-02-01T05:44:33;2.47;;;1.97;;
7843;SDS011;3967;48.702;9.326;2023-02-01T05:46:59;3.47;;;2.00;;
7843;SDS011;3967;48.702;9.326;2023-02-01T05:49:26;2.50;;;1.80;;
7843;SDS011;3967;48.702;9.326;2023-02-01T05:51:54;1.80;;;1.70;;
7843;SDS011;3967;48.702;9.326;2023-02-01T05:54:20;2.67;;;2.20;;
7843;SDS011;3967;48.702;9.326;2023-02-01T05:56:47;3.93;;;2.30;;
7843;SDS011;3967;48.702;9.326;2023-02-01T05:59:14;4.83;;;2.07;;
7843;SDS011;3967;48.702;9.326;2023-02-01T06:01:40;2.30;;;2.10;;
7843;SDS011;3967;48.702;9.326;2023-02-01T06:04:07;2.30;;;1.83;;
7843;SDS011;3967;48.702;9.326;2023-02-01T06:06:35;2.60;;;1.67;;
7843;SDS011;3967;48.702;9.326;2023-02-01T06:09:05;5.23;;;2.37;;
7843;SDS011;3967;48.702;9.326;2023-02-01T06:11:32;2.77;;;1.87;;
7843;SDS011;3967;48.702;9.326;2023-02-01T06:13:58;2.30;;;1.90;;
7843;SDS011;3967;48.702;9.326;2023-02-01T06:16:25;1.83;;;1.73;;
7843;SDS011;3967;48.702;9.326;2023-02-01T06:18:52;3.77;;;2.10;;
7843;SDS011;3967;48.702;9.326;2023-02-01T06:21:19;3.10;;;1.97;;
7843;SDS011;3967;48.702;9.326;2023-02-01T06:23:52;2.00;;;1.70;;
7843;SDS011;3967;48.702;9.326;2023-02-01T06:26:22;2.30;;;2.03;;
7843;SDS011;3967;48.702;9.326;2023-02-01T06:28:49;1.70;;;1.57;;
7843;SDS011;3967;48.702;9.326;2023-02-01T06:31:15;1.83;;;1.73;;
7843;SDS011;3967;48.702;9.326;2023-02-01T06:33:42;2.87;;;1.80;;
7843;SDS011;3967;48.702;9.326;2023-02-01T06:36:09;3.40;;;1.63;;
7843;SDS011;3967;48.702;9.326;2023-02-01T06:38:38;3.07;;;1.80;;
7843;SDS011;3967;48.702;9.326;2023-02-01T06:41:05;3.37;;;1.80;;
7843;SDS011;3967;48.702;9.326;2023-02-01T06:43:32;1.70;;;1.60;;
7843;SDS011;3967;48.702;9.326;2023-02-01T06:46:00;1.77;;;1.67;;
7843;SDS011;3967;48.702;9.326;2023-02-01T06:48:28;2.53;;;1.60;;
7843;SDS011;3967;48.702;9.326;2023-02-01T06:50:55;3.27;;;1.67;;
7843;SDS011;3967;48.702;9.326;2023-02-01T06:53:22;2.93;;;2.00;;
7843;SDS011;3967;48.702;9.326;2023-02-01T06:55:58;2.80;;;1.70;;
7843;SDS011;3967;48.702;9.326;2023-02-01T06:58:30;2.03;;;1.80;;
7843;SDS011;3967;48.702;9.326;2023-02-01T07:00:58;2.00;;;1.80;;
7843;SDS011;3967;48.702;9.326;2023-02-01T07:03:31;3.47;;;1.73;;
7843;SDS011;3967;48.702;9.326;2023-02-01T07:05:58;1.60;;;1.50;;
7843;SDS011;3967;48.702;9.326;2023-02-01T07:08:26;2.63;;;1.53;;
7843;SDS011;3967;48.702;9.326;2023-02-01T07:10:54;1.90;;;1.77;;
7843;SDS011;3967;48.702;9.326;2023-02-01T07:13:20;1.53;;;1.43;;
7843;SDS011;3967;48.702;9.326;2023-02-01T07:15:47;2.67;;;1.90;;
7843;SDS011;3967;48.702;9.326;2023-02-01T07:18:14;1.87;;;1.70;;
7843;SDS011;3967;48.702;9.326;2023-02-01T07:20:41;2.00;;;1.80;;
7843;SDS011;3967;48.702;9.326;2023-02-01T07:23:09;2.00;;;1.50;;
7843;SDS011;3967;48.702;9.326;2023-02-01T07:25:36;1.77;;;1.60;;
7843;SDS011;3967;48.702;9.326;2023-02-01T07:28:03;2.10;;;1.90;;
7843;SDS011;3967;48.702;9.326;2023-02-01T07:30:29;3.77;;;1.60;;
7843;SDS011;3967;48.702;9.326;2023-02-01T07:32:57;2.10;;;1.60;;
7843;SDS011;3967;48.702;9.326;2023-02-01T07:35:27;1.77;;;1.63;;
7843;SDS011;3967;48.702;9.326;2023-02-01T07:37:54;1.90;;;1.80;;
7843;SDS011;3967;48.702;9.326;2023-02-01T07:40:23;2.20;;;1.83;;
7843;SDS011;3967;48.702;9.326;2023-02-01T07:42:55;2.43;;;1.57;;
7843;SDS011;3967;48.702;9.326;2023-02-01T07:45:21;2.30;;;1.60;;
7843;SDS011;3967;48.702;9.326;2023-02-01T07:47:51;3.67;;;2.07;;
7843;SDS011;3967;48.702;9.326;2023-02-01T07:50:19;2.00;;;1.80;;
7843;SDS011;3967;48.702;9.326;2023-02-01T07:52:46;1.80;;;1.70;;
7843;SDS011;3967;48.702;9.326;2023-02-01T07:55:13;3.33;;;3.03;;
7843;SDS011;3967;48.702;9.326;2023-02-01T07:57:40;3.30;;;1.97;;
7843;SDS011;3967;48.702;9.326;2023-02-01T08:00:06;2.30;;;1.53;;
7843;SDS011;3967;48.702;9.326;2023-02-01T08:02:53;2.13;;;1.70;;
7843;SDS011;3967;48.702;9.326;2023-02-01T08:05:19;2.93;;;1.73;;
7843;SDS011;3967;48.702;9.326;2023-02-01T08:07:49;1.80;;;1.70;;
7843;SDS011;3967;48.702;9.326;2023-02-01T08:10:17;1.70;;;1.60;;
7843;SDS011;3967;48.702;9.326;2023-02-01T08:12:44;2.10;;;1.90;;
7843;SDS011;3967;48.702;9.326;2023-02-01T08:15:15;1.70;;;1.60;;
7843;SDS011;3967;48.702;9.326;2023-02-01T08:17:48;2.33;;;1.70;;
7843;SDS011;3967;48.702;9.326;2023-02-01T08:20:16;2.57;;;1.97;;
7843;SDS011;3967;48.702;9.326;2023-02-01T08:22:44;2.00;;;1.80;;
7843;SDS011;3967;48.702;9.326;2023-02-01T08:25:11;1.97;;;1.53;;
7843;SDS011;3967;48.702;9.326;2023-02-01T08:27:38;3.00;;;1.40;;
7843;SDS011;3967;48.702;9.326;2023-02-01T08:30:05;2.80;;;1.73;;
7843;SDS011;3967;48.702;9.326;2023-02-01T08:32:33;2.03;;;1.80;;
7843;SDS011;3967;48.702;9.326;2023-02-01T08:35:00;2.23;;;1.80;;
7843;SDS011;3967;48.702;9.326;2023-02-01T08:37:27;5.50;;;1.93;;
7843;SDS011;3967;48.702;9.326;2023-02-01T08:39:54;1.87;;;1.60;;
7843;SDS011;3967;48.702;9.326;2023-02-01T08:42:21;1.70;;;1.60;;
7843;SDS011;3967;48.702;9.326;2023-02-01T08:45:07;2.33;;;1.47;;
7843;SDS011;3967;48.702;9.326;2023-02-01T08:47:34;2.77;;;1.60;;
7843;SDS011;3967;48.702;9.326;2023-02-01T08:50:01;2.90;;;1.87;;
7843;SDS011;3967;48.702;9.326;2023-02-01T08:52:28;2.67;;;1.67;;
7843;SDS011;3967;48.702;9.326;2023-02-01T08:54:55;3.30;;;1.70;;
7843;SDS011;3967;48.702;9.326;2023-02-01T08:57:22;2.90;;;1.90;;
7843;SDS011;3967;48.702;9.326;2023-02-01T08:59:49;1.60;;;1.50;;
7843;SDS011;3967;48.702;9.326;2023-02-01T09:02:16;3.70;;;2.07;;
7843;SDS011;3967;48.702;9.326;2023-02-01T09:04:43;2.33;;;1.70;;
7843;SDS011;3967;48.702;9.326;2023-02-01T09:07:10;2.07;;;1.80;;
7843;SDS011;3967;48.702;9.326;2023-02-01T09:09:39;3.10;;;1.93;;
7843;SDS011;3967;48.702;9.326;2023-02-01T09:12:05;2.60;;;1.97;;
7843;SDS011;3967;48.702;9.326;2023-02-01T09:14:32;2.03;;;1.70;;
7843;SDS011;3967;48.702;9.326;2023-02-01T09:16:59;1.70;;;1.60;;
7843;SDS011;3967;48.702;9.326;2023-02-01T09:19:26;1.87;;;1.53;;
7843;SDS011;3967;48.702;9.326;2023-02-01T09:21:52;4.17;;;1.80;;
7843;SDS011;3967;48.702;9.326;2023-02-01T09:24:19;2.87;;;1.70;;
7843;SDS011;3967;48.702;9.326;2023-02-01T09:26:46;2.83;;;1.60;;
7843;SDS011;3967;48.702;9.326;2023-02-01T09:29:13;2.80;;;2.00;;
7843;SDS011;3967;48.702;9.326;2023-02-01T09:31:40;5.37;;;2.00;;
7843;SDS011;3967;48.702;9.326;2023-02-01T09:34:18;1.47;;;1.37;;
7843;SDS011;3967;48.702;9.326;2023-02-01T09:36:45;3.70;;;1.70;;
7843;SDS011;3967;48.702;9.326;2023-02-01T09:39:12;4.67;;;1.30;;
7843;SDS011;3967;48.702;9.326;2023-02-01T09:47:10;4.27;;;1.80;;
7843;SDS011;3967;48.702;9.326;2023-02-01T09:49:59;4.67;;;1.80;;
7843;SDS011;3967;48.702;9.326;2023-02-01T09:52:38;4.60;;;1.87;;
7843;SDS011;3967;48.702;9.326;2023-02-01T09:55:24;2.97;;;1.50;;
7843;SDS011;3967;48.702;9.326;2023-02-01T09:58:19;2.07;;;1.07;;
7843;SDS011;3967;48.702;9.326;2023-02-01T10:00:54;2.70;;;1.67;;
7843;SDS011;3967;48.702;9.326;2023-02-01T10:03:24;2.63;;;1.50;;
7843;SDS011;3967;48.702;9.326;2023-02-01T10:11:54;4.97;;;1.50;;
7843;SDS011;3967;48.702;9.326;2023-02-01T10:23:02;3.77;;;1.40;;
7843;SDS011;3967;48.702;9.326;2023-02-01T10:28:50;2.80;;;1.47;;
7843;SDS011;3967;48.702;9.326;2023-02-01T10:31:18;2.53;;;1.37;;
7843;SDS011;3967;48.702;9.326;2023-02-01T10:33:48;4.20;;;1.77;;
7843;SDS011;3967;48.702;9.326;2023-02-01T10:36:23;4.07;;;1.60;;
7843;SDS011;3967;48.702;9.326;2023-02-01T10:39:08;3.80;;;1.60;;
7843;SDS011;3967;48.702;9.326;2023-02-01T10:41:40;4.63;;;1.83;;
7843;SDS011;3967;48.702;9.326;2023-02-01T10:44:13;2.70;;;1.77;;
7843;SDS011;3967;48.702;9.326;2023-02-01T10:46:43;3.47;;;2.03;;
7843;SDS011;3967;48.702;9.326;2023-02-01T10:49:17;6.70;;;1.80;;
7843;SDS011;3967;48.702;9.326;2023-02-01T10:51:58;4.60;;;1.93;;
7843;SDS011;3967;48.702;9.326;2023-02-01T10:54:35;2.93;;;1.40;;
7843;SDS011;3967;48.702;9.326;2023-02-01T10:57:38;5.07;;;2.47;;
7843;SDS011;3967;48.702;9.326;2023-02-01T11:00:02;8.33;;;1.87;;
7843;SDS011;3967;48.702;9.326;2023-02-01T11:02:44;8.40;;;1.90;;
7843;SDS011;3967;48.702;9.326;2023-02-01T11:05:11;4.40;;;1.87;;
7843;SDS011;3967;48.702;9.326;2023-02-01T11:07:39;5.87;;;1.60;;
7843;SDS011;3967;48.702;9.326;2023-02-01T11:13:14;6.13;;;1.70;;
7843;SDS011;3967;48.702;9.326;2023-02-01T11:15:45;7.97;;;1.90;;
7843;SDS011;3967;48.702;9.326;2023-02-01T11:18:19;4.70;;;1.70;;
7843;SDS011;3967;48.702;9.326;2023-02-01T11:20:51;6.13;;;2.63;;
7843;SDS011;3967;48.702;9.326;2023-02-01T11:23:19;7.60;;;2.33;;
7843;SDS011;3967;48.702;9.326;2023-02-01T11:25:53;9.97;;;4.47;;
7843;SDS011;3967;48.702;9.326;2023-02-01T11:28:25;8.83;;;3.50;;
7843;SDS011;3967;48.702;9.326;2023-02-01T11:30:54;6.37;;;2.60;;
7843;SDS011;3967;48.702;9.326;2023-02-01T11:33:26;8.30;;;3.67;;
7843;SDS011;3967;48.702;9.326;2023-02-01T11:36:01;6.33;;;2.33;;
7843;SDS011;3967;48.702;9.326;2023-02-01T11:38:47;7.90;;;1.90;;
7843;SDS011;3967;48.702;9.326;2023-02-01T11:43:54;4.73;;;1.67;;
7843;SDS011;3967;48.702;9.326;2023-02-01T11:46:22;6.33;;;1.83;;
7843;SDS011;3967;48.702;9.326;2023-02-01T11:49:41;11.60;;;2.30;;
7843;SDS011;3967;48.702;9.326;2023-02-01T11:54:38;7.00;;;1.90;;
7843;SDS011;3967;48.702;9.326;2023-02-01T11:57:15;8.80;;;2.20;;
7843;SDS011;3967;48.702;9.326;2023-02-01T12:02:43;11.80;;;2.20;;
7843;SDS011;3967;48.702;9.326;2023-02-01T12:05:34;7.20;;;2.20;;
7843;SDS011;3967;48.702;9.326;2023-02-01T12:08:11;8.47;;;1.90;;
7843;SDS011;3967;48.702;9.326;2023-02-01T12:11:04;8.23;;;2.77;;
7843;SDS011;3967;48.702;9.326;2023-02-01T12:13:46;11.33;;;2.50;;
7843;SDS011;3967;48.702;9.326;2023-02-01T12:37:09;9.13;;;2.20;;
7843;SDS011;3967;48.702;9.326;2023-02-01T12:42:13;7.13;;;2.43;;
7843;SDS011;3967;48.702;9.326;2023-02-01T12:44:49;11.10;;;2.17;;
7843;SDS011;3967;48.702;9.326;2023-02-01T12:52:36;8.13;;;2.13;;
7843;SDS011;3967;48.702;9.326;2023-02-01T12:55:10;8.13;;;2.27;;
7843;SDS011;3967;48.702;9.326;2023-02-01T12:58:17;10.57;;;2.10;;
7843;SDS011;3967;48.702;9.326;2023-02-01T13:00:55;8.57;;;2.00;;
7843;SDS011;3967;48.702;9.326;2023-02-01T13:03:41;7.23;;;2.37;;
7843;SDS011;3967;48.702;9.326;2023-02-01T13:06:19;12.77;;;2.70;;
7843;SDS011;3967;48.702;9.326;2023-02-01T13:08:55;8.17;;;2.60;;
7843;SDS011;3967;48.702;9.326;2023-02-01T13:16:50;7.90;;;2.07;;
7843;SDS011;3967;48.702;9.326;2023-02-01T13:19:24;9.30;;;1.63;;
7843;SDS011;3967;48.702;9.326;2023-02-01T13:22:23;5.33;;;1.90;;
7843;SDS011;3967;48.702;9.326;2023-02-01T13:25:13;4.70;;;1.67;;
7843;SDS011;3967;48.702;9.326;2023-02-01T13:27:44;6.17;;;1.70;;
7843;SDS011;3967;48.702;9.326;2023-02-01T13:30:16;10.30;;;1.80;;
7843;SDS011;3967;48.702;9.326;2023-02-01T13:39:32;7.77;;;2.47;;
7843;SDS011;3967;48.702;9.326;2023-02-01T13:41:56;5.70;;;1.83;;
7843;SDS011;3967;48.702;9.326;2023-02-01T13:44:30;7.33;;;2.13;;
7843;SDS011;3967;48.702;9.326;2023-02-01T13:47:29;9.47;;;2.03;;
7843;SDS011;3967;48.702;9.326;2023-02-01T13:50:19;7.50;;;2.37;;
7843;SDS011;3967;48.702;9.326;2023-02-01T13:52:51;9.07;;;1.83;;
7843;SDS011;3967;48.702;9.326;2023-02-01T13:56:01;6.70;;;1.47;;
7843;SDS011;3967;48.702;9.326;2023-02-01T13:58:37;13.03;;;2.13;;
7843;SDS011;3967;48.702;9.326;2023-02-01T14:03:51;6.83;;;2.40;;
7843;SDS011;3967;48.702;9.326;2023-02-01T14:16:44;8.50;;;1.70;;
7843;SDS011;3967;48.702;9.326;2023-02-01T14:19:37;9.70;;;2.40;;
7843;SDS011;3967;48.702;9.326;2023-02-01T14:24:55;6.80;;;2.13;;
7843;SDS011;3967;48.702;9.326;2023-02-01T14:27:24;6.13;;;2.03;;
7843;SDS011;3967;48.702;9.326;2023-02-01T14:29:58;6.37;;;2.00;;
7843;SDS011;3967;48.702;9.326;2023-02-01T14:35:04;7.40;;;2.17;;
7843;SDS011;3967;48.702;9.326;2023-02-01T14:37:34;9.70;;;2.10;;
7843;SDS011;3967;48.702;9.326;2023-02-01T14:40:04;8.27;;;2.17;;
7843;SDS011;3967;48.702;9.326;2023-02-01T14:47:45;4.87;;;1.83;;
7843;SDS011;3967;48.702;9.326;2023-02-01T14:55:41;10.47;;;2.23;;
7843;SDS011;3967;48.702;9.326;2023-02-01T15:01:01;7.87;;;2.07;;
7843;SDS011;3967;48.702;9.326;2023-02-01T15:03:48;10.73;;;2.27;;
7843;SDS011;3967;48.702;9.326;2023-02-01T15:08:49;7.10;;;2.00;;
7843;SDS011;3967;48.702;9.326;2023-02-01T15:11:23;6.90;;;2.37;;
7843;SDS011;3967;48.702;9.326;2023-02-01T15:13:51;8.00;;;2.00;;
7843;SDS011;3967;48.702;9.326;2023-02-01T15:16:21;6.30;;;2.40;;
7843;SDS011;3967;48.702;9.326;2023-02-01T15:18:50;11.03;;;2.30;;
7843;SDS011;3967;48.702;9.326;2023-02-01T15:21:42;8.50;;;2.33;;
7843;SDS011;3967;48.702;9.326;2023-02-01T15:24:22;8.83;;;2.33;;
7843;SDS011;3967;48.702;9.326;2023-02-01T15:27:02;7.80;;;2.43;;
7843;SDS011;3967;48.702;9.326;2023-02-01T15:29:32;8.47;;;2.30;;
7843;SDS011;3967;48.702;9.326;2023-02-01T15:32:02;7.43;;;2.53;;
7843;SDS011;3967;48.702;9.326;2023-02-01T15:34:49;9.67;;;2.80;;
7843;SDS011;3967;48.702;9.326;2023-02-01T15:37:16;7.90;;;2.17;;
7843;SDS011;3967;48.702;9.326;2023-02-01T15:42:32;9.97;;;3.43;;
7843;SDS011;3967;48.702;9.326;2023-02-01T15:44:59;9.97;;;2.93;;
7843;SDS011;3967;48.702;9.326;2023-02-01T15:47:29;8.13;;;3.10;;
7843;SDS011;3967;48.702;9.326;2023-02-01T15:49:59;7.07;;;2.87;;
7843;SDS011;3967;48.702;9.326;2023-02-01T15:52:34;9.00;;;2.50;;
7843;SDS011;3967;48.702;9.326;2023-02-01T15:57:52;5.80;;;2.70;;
7843;SDS011;3967;48.702;9.326;2023-02-01T16:00:21;10.70;;;2.70;;
7843;SDS011;3967;48.702;9.326;2023-02-01T16:02:55;6.13;;;2.40;;
7843;SDS011;3967;48.702;9.326;2023-02-01T16:05:35;6.60;;;2.37;;
7843;SDS011;3967;48.702;9.326;2023-02-01T16:10:31;6.33;;;1.87;;
7843;SDS011;3967;48.702;9.326;2023-02-01T16:13:04;3.57;;;2.00;;
7843;SDS011;3967;48.702;9.326;2023-02-01T16:15:31;5.13;;;1.93;;
7843;SDS011;3967;48.702;9.326;2023-02-01T16:17:58;4.57;;;1.80;;
7843;SDS011;3967;48.702;9.326;2023-02-01T16:20:25;8.43;;;2.40;;
7843;SDS011;3967;48.702;9.326;2023-02-01T16:22:51;7.50;;;2.70;;
7843;SDS011;3967;48.702;9.326;2023-02-01T16:25:18;6.53;;;1.83;;
7843;SDS011;3967;48.702;9.326;2023-02-01T16:27:45;7.53;;;2.50;;
7843;SDS011;3967;48.702;9.326;2023-02-01T16:30:12;6.70;;;1.97;;
7843;SDS011;3967;48.702;9.326;2023-02-01T16:32:38;8.60;;;2.60;;
7843;SDS011;3967;48.702;9.326;2023-02-01T16:35:18;6.17;;;2.37;;
7843;SDS011;3967;48.702;9.326;2023-02-01T16:37:49;7.33;;;2.43;;
7843;SDS011;3967;48.702;9.326;2023-02-01T16:40:16;9.03;;;2.43;;
7843;SDS011;3967;48.702;9.326;2023-02-01T16:42:45;7.63;;;2.50;;
7843;SDS011;3967;48.702;9.326;2023-02-01T16:45:13;7.20;;;2.53;;
7843;SDS011;3967;48.702;9.326;2023-02-01T16:47:41;7.47;;;3.13;;
7843;SDS011;3967;48.702;9.326;2023-02-01T16:50:15;8.67;;;3.47;;
7843;SDS011;3967;48.702;9.326;2023-02-01T16:52:49;8.73;;;2.30;;
7843;SDS011;3967;48.702;9.326;2023-02-01T16:55:18;9.77;;;2.83;;
7843;SDS011;3967;48.702;9.326;2023-02-01T16:57:48;8.70;;;2.87;;
7843;SDS011;3967;48.702;9.326;2023-02-01T17:00:15;8.43;;;2.40;;
7843;SDS011;3967;48.702;9.326;2023-02-01T17:02:50;7.20;;;3.50;;
7843;SDS011;3967;48.702;9.326;2023-02-01T17:05:17;10.33;;;2.90;;
7843;SDS011;3967;48.702;9.326;2023-02-01T17:07:44;8.10;;;2.63;;
7843;SDS011;3967;48.702;9.326;2023-02-01T17:10:21;9.67;;;2.53;;
7843;SDS011;3967;48.702;9.326;2023-02-01T17:13:00;8.73;;;2.80;;
7843;SDS011;3967;48.702;9.326;2023-02-01T17:15:28;10.60;;;3.30;;
7843;SDS011;3967;48.702;9.326;2023-02-01T17:18:00;8.63;;;2.53;;
7843;SDS011;3967;48.702;9.326;2023-02-01T17:20:28;8.80;;;2.40;;
7843;SDS011;3967;48.702;9.326;2023-02-01T17:22:59;10.00;;;3.00;;
7843;SDS011;3967;48.702;9.326;2023-02-01T17:25:26;10.17;;;3.63;;
7843;SDS011;3967;48.702;9.326;2023-02-01T17:27:55;6.93;;;3.03;;
7843;SDS011;3967;48.702;9.326;2023-02-01T17:30:21;7.73;;;3.00;;
7843;SDS011;3967;48.702;9.326;2023-02-01T17:32:49;11.77;;;3.43;;
7843;SDS011;3967;48.702;9.326;2023-02-01T17:35:18;8.60;;;2.53;;
7843;SDS011;3967;48.702;9.326;2023-02-01T17:37:48;9.63;;;3.17;;
7843;SDS011;3967;48.702;9.326;2023-02-01T17:40:15;10.33;;;2.80;;
7843;SDS011;3967;48.702;9.326;2023-02-01T17:42:42;10.47;;;4.30;;
7843;SDS011;3967;48.702;9.326;2023-02-01T17:48:04;8.60;;;2.97;;
7843;SDS011;3967;48.702;9.326;2023-02-01T17:50:32;7.80;;;2.87;;
7843;SDS011;3967;48.702;9.326;2023-02-01T17:53:02;5.70;;;2.33;;
7843;SDS011;3967;48.702;9.326;2023-02-01T17:55:31;7.23;;;3.10;;
7843;SDS011;3967;48.702;9.326;2023-02-01T17:58:00;14.57;;;3.07;;
7843;SDS011;3967;48.702;9.326;2023-02-01T18:00:29;9.43;;;2.80;;
7843;SDS011;3967;48.702;9.326;2023-02-01T18:02:56;7.60;;;3.27;;
7843;SDS011;3967;48.702;9.326;2023-02-01T18:05:28;10.17;;;4.23;;
7843;SDS011;3967;48.702;9.326;2023-02-01T18:08:02;10.50;;;3.40;;
7843;SDS011;3967;48.702;9.326;2023-02-01T18:10:29;7.77;;;2.50;;